sensor_id;sensor_type;location;lat;lon;timestamp;pressure;altitude;pressure_sealevel;temperature;humidity
11678;BME280;5895;41.950;24.372;2023-07-22T00:01:45;87167.97;;;19.95;65.29
11678;BME280;5895;41.950;24.372;2023-07-22T00:04:13;87154.81;;;19.90;65.34
11678;BME280;5895;41.950;24.372;2023-07-22T00:06:40;87161.97;;;19.85;65.68
11678;BME280;5895;41.950;24.372;2023-07-22T00:09:08;87157.25;;;19.81;65.80
11678;BME280;5895;41.950;24.372;2023-07-22T00:11:37;87159.13;;;19.76;66.79
11678;BME280;5895;41.950;24.372;2023-07-22T00:14:04;87158.09;;;19.72;66.89
11678;BME280;5895;41.950;24.372;2023-07-22T00:16:32;87163.88;;;19.74;67.14
11678;BME280;5895;41.950;24.372;2023-07-22T00:18:59;87165.47;;;19.70;67.46
11678;BME280;5895;41.950;24.372;2023-07-22T00:21:27;87148.66;;;19.50;66.89
11678;BME280;5895;41.950;24.372;2023-07-22T00:23:55;87160.28;;;19.44;66.84
11678;BME280;5895;41.950;24.372;2023-07-22T00:26:22;87153.97;;;19.35;66.75
11678;BME280;5895;41.950;24.372;2023-07-22T00:28:51;87150.34;;;19.26;67.44
11678;BME280;5895;41.950;24.372;2023-07-22T00:31:18;87159.88;;;19.01;67.07
11678;BME280;5895;41.950;24.372;2023-07-22T00:33:46;87163.31;;;18.97;67.00
11678;BME280;5895;41.950;24.372;2023-07-22T00:36:13;87153.59;;;18.97;67.06
11678;BME280;5895;41.950;24.372;2023-07-22T00:38:40;87156.22;;;19.02;66.95
11678;BME280;5895;41.950;24.372;2023-07-22T00:41:08;87155.13;;;19.09;66.84
11678;BME280;5895;41.950;24.372;2023-07-22T00:43:35;87149.63;;;19.05;67.37
11678;BME280;5895;41.950;24.372;2023-07-22T00:46:04;87153.03;;;19.11;68.11
11678;BME280;5895;41.950;24.372;2023-07-22T00:48:31;87157.22;;;19.17;67.56
11678;BME280;5895;41.950;24.372;2023-07-22T00:50:59;87149.88;;;19.14;67.41
11678;BME280;5895;41.950;24.372;2023-07-22T00:53:27;87152.22;;;19.15;67.11
11678;BME280;5895;41.950;24.372;2023-07-22T00:55:54;87148.03;;;19.14;67.05
11678;BME280;5895;41.950;24.372;2023-07-22T00:58:21;87153.28;;;19.14;67.42
11678;BME280;5895;41.950;24.372;2023-07-22T01:00:49;87147.19;;;19.19;67.43
11678;BME280;5895;41.950;24.372;2023-07-22T01:03:18;87142.47;;;19.21;67.92
11678;BME280;5895;41.950;24.372;2023-07-22T01:05:46;87145.13;;;19.16;66.88
11678;BME280;5895;41.950;24.372;2023-07-22T01:08:14;87153.78;;;19.16;66.97
11678;BME280;5895;41.950;24.372;2023-07-22T01:10:41;87163.03;;;19.14;66.96
11678;BME280;5895;41.950;24.372;2023-07-22T01:13:09;87168.81;;;19.11;66.99
11678;BME280;5895;41.950;24.372;2023-07-22T01:15:37;87165.13;;;19.07;66.78
11678;BME280;5895;41.950;24.372;2023-07-22T01:18:06;87174.06;;;19.00;67.15
11678;BME280;5895;41.950;24.372;2023-07-22T01:20:36;87166.19;;;18.95;67.59
11678;BME280;5895;41.950;24.372;2023-07-22T01:23:05;87166.97;;;18.91;67.58
11678;BME280;5895;41.950;24.372;2023-07-22T01:25:33;87163.06;;;18.93;67.98
11678;BME280;5895;41.950;24.372;2023-07-22T01:28:00;87157.53;;;18.90;67.90
11678;BME280;5895;41.950;24.372;2023-07-22T01:30:27;87171.47;;;18.85;68.24
11678;BME280;5895;41.950;24.372;2023-07-22T01:32:55;87173.06;;;18.76;68.27
11678;BME280;5895;41.950;24.372;2023-07-22T01:35:22;87169.13;;;18.73;68.13
11678;BME280;5895;41.950;24.372;2023-07-22T01:37:49;87162.56;;;18.76;68.27
11678;BME280;5895;41.950;24.372;2023-07-22T01:40:18;87160.97;;;18.80;68.43
11678;BME280;5895;41.950;24.372;2023-07-22T01:42:46;87148.84;;;18.84;68.12
11678;BME280;5895;41.950;24.372;2023-07-22T01:45:13;87160.69;;;18.87;68.65
11678;BME280;5895;41.950;24.372;2023-07-22T01:47:41;87159.91;;;18.81;68.05
11678;BME280;5895;41.950;24.372;2023-07-22T01:50:09;87163.63;;;18.70;68.20
11678;BME280;5895;41.950;24.372;2023-07-22T01:52:37;87168.59;;;18.71;68.70
11678;BME280;5895;41.950;24.372;2023-07-22T01:55:05;87164.69;;;18.69;68.99
11678;BME280;5895;41.950;24.372;2023-07-22T01:57:38;87165.69;;;18.68;70.56
11678;BME280;5895;41.950;24.372;2023-07-22T02:00:07;87159.94;;;18.71;70.05
11678;BME280;5895;41.950;24.372;2023-07-22T02:02:36;87160.97;;;18.75;71.53
11678;BME280;5895;41.950;24.372;2023-07-22T02:05:04;87166.72;;;18.67;70.23
11678;BME280;5895;41.950;24.372;2023-07-22T02:07:32;87153.88;;;18.55;69.75
11678;BME280;5895;41.950;24.372;2023-07-22T02:09:59;87165.69;;;18.58;69.43
11678;BME280;5895;41.950;24.372;2023-07-22T02:12:26;87169.91;;;18.59;69.68
11678;BME280;5895;41.950;24.372;2023-07-22T02:14:55;87173.03;;;18.50;69.88
11678;BME280;5895;41.950;24.372;2023-07-22T02:17:23;87175.16;;;18.43;69.83
11678;BME280;5895;41.950;24.372;2023-07-22T02:19:50;87175.16;;;18.43;69.93
11678;BME280;5895;41.950;24.372;2023-07-22T02:22:17;87174.09;;;18.44;69.75
11678;BME280;5895;41.950;24.372;2023-07-22T02:24:45;87174.63;;;18.46;70.34
11678;BME280;5895;41.950;24.372;2023-07-22T02:27:12;87170.97;;;18.47;71.04
11678;BME280;5895;41.950;24.372;2023-07-22T02:29:40;87171.75;;;18.48;71.96
11678;BME280;5895;41.950;24.372;2023-07-22T02:32:09;87176.47;;;18.51;73.52
11678;BME280;5895;41.950;24.372;2023-07-22T02:34:36;87176.72;;;18.55;73.72
11678;BME280;5895;41.950;24.372;2023-07-22T02:37:04;87186.72;;;18.58;73.93
11678;BME280;5895;41.950;24.372;2023-07-22T02:39:32;87183.56;;;18.61;73.69
11678;BME280;5895;41.950;24.372;2023-07-22T02:42:00;87185.13;;;18.62;73.65
11678;BME280;5895;41.950;24.372;2023-07-22T02:44:28;87184.06;;;18.63;73.64
11678;BME280;5895;41.950;24.372;2023-07-22T02:46:55;87187.50;;;18.58;73.00
11678;BME280;5895;41.950;24.372;2023-07-22T02:49:24;87191.44;;;18.61;73.10
11678;BME280;5895;41.950;24.372;2023-07-22T02:51:51;87183.84;;;18.64;73.08
11678;BME280;5895;41.950;24.372;2023-07-22T02:54:19;87192.50;;;18.55;72.82
11678;BME280;5895;41.950;24.372;2023-07-22T02:56:46;87187.75;;;18.51;72.95
11678;BME280;5895;41.950;24.372;2023-07-22T02:59:13;87177.00;;;18.53;73.37
11678;BME280;5895;41.950;24.372;2023-07-22T03:01:40;87181.97;;;18.55;73.70
11678;BME280;5895;41.950;24.372;2023-07-22T03:04:08;87184.09;;;18.53;73.59
11678;BME280;5895;41.950;24.372;2023-07-22T03:06:37;87187.75;;;18.51;74.13
11678;BME280;5895;41.950;24.372;2023-07-22T03:09:04;87182.50;;;18.51;73.79
11678;BME280;5895;41.950;24.372;2023-07-22T03:11:32;87181.72;;;18.46;72.60
11678;BME280;5895;41.950;24.372;2023-07-22T03:14:00;87186.19;;;18.45;73.62
11678;BME280;5895;41.950;24.372;2023-07-22T03:16:27;87175.66;;;18.45;74.64
11678;BME280;5895;41.950;24.372;2023-07-22T03:18:55;87187.78;;;18.41;74.53
11678;BME280;5895;41.950;24.372;2023-07-22T03:21:22;87185.16;;;18.46;77.01
11678;BME280;5895;41.950;24.372;2023-07-22T03:23:51;87184.88;;;18.53;77.89
11678;BME280;5895;41.950;24.372;2023-07-22T03:26:18;87182.78;;;18.55;76.83
11678;BME280;5895;41.950;24.372;2023-07-22T03:28:47;87177.78;;;18.59;77.34
11678;BME280;5895;41.950;24.372;2023-07-22T03:31:15;87180.41;;;18.59;76.08
11678;BME280;5895;41.950;24.372;2023-07-22T03:33:43;87186.72;;;18.58;75.26
11678;BME280;5895;41.950;24.372;2023-07-22T03:36:12;87190.94;;;18.64;74.92
11678;BME280;5895;41.950;24.372;2023-07-22T03:38:39;87193.59;;;18.69;74.89
11678;BME280;5895;41.950;24.372;2023-07-22T03:41:08;87188.06;;;18.75;74.99
11678;BME280;5895;41.950;24.372;2023-07-22T03:43:36;87198.31;;;18.82;74.87
11678;BME280;5895;41.950;24.372;2023-07-22T03:46:03;87196.72;;;18.81;74.64
11678;BME280;5895;41.950;24.372;2023-07-22T03:48:30;87191.47;;;18.81;74.84
11678;BME280;5895;41.950;24.372;2023-07-22T03:50:58;87185.16;;;18.77;74.96
11678;BME280;5895;41.950;24.372;2023-07-22T03:53:25;87192.78;;;18.79;75.11
11678;BME280;5895;41.950;24.372;2023-07-22T03:55:53;87194.63;;;18.78;75.63
11678;BME280;5895;41.950;24.372;2023-07-22T03:58:21;87198.56;;;18.81;75.18
11678;BME280;5895;41.950;24.372;2023-07-22T04:00:49;87198.31;;;18.82;75.76
11678;BME280;5895;41.950;24.372;2023-07-22T04:03:16;87196.47;;;18.83;75.94
11678;BME280;5895;41.950;24.372;2023-07-22T04:05:44;87195.16;;;18.80;75.63
11678;BME280;5895;41.950;24.372;2023-07-22T04:08:11;87200.38;;;18.85;75.68
11678;BME280;5895;41.950;24.372;2023-07-22T04:10:38;87194.34;;;18.85;75.84
11678;BME280;5895;41.950;24.372;2023-07-22T04:13:06;87197.78;;;18.80;76.25
11678;BME280;5895;41.950;24.372;2023-07-22T04:15:35;87191.47;;;18.86;78.28
11678;BME280;5895;41.950;24.372;2023-07-22T04:18:02;87195.13;;;18.90;77.40
11678;BME280;5895;41.950;24.372;2023-07-22T04:20:29;87195.66;;;18.92;76.01
11678;BME280;5895;41.950;24.372;2023-07-22T04:22:57;87185.13;;;18.97;76.13
11678;BME280;5895;41.950;24.372;2023-07-22T04:25:24;87194.06;;;19.01;76.42
11678;BME280;5895;41.950;24.372;2023-07-22T04:27:51;87186.16;;;19.01;76.58
11678;BME280;5895;41.950;24.372;2023-07-22T04:30:19;87191.97;;;19.03;76.14
11678;BME280;5895;41.950;24.372;2023-07-22T04:32:49;87189.06;;;19.10;75.97
11678;BME280;5895;41.950;24.372;2023-07-22T04:35:16;87198.25;;;19.13;75.90
11678;BME280;5895;41.950;24.372;2023-07-22T04:37:44;87195.63;;;19.08;75.92
11678;BME280;5895;41.950;24.372;2023-07-22T04:40:12;87194.03;;;19.07;76.11
11678;BME280;5895;41.950;24.372;2023-07-22T04:42:42;87209.31;;;18.99;77.03
11678;BME280;5895;41.950;24.372;2023-07-22T04:45:10;87191.44;;;19.01;76.53
11678;BME280;5895;41.950;24.372;2023-07-22T04:47:38;87203.25;;;19.09;76.06
11678;BME280;5895;41.950;24.372;2023-07-22T04:50:09;87197.22;;;19.14;78.28
11678;BME280;5895;41.950;24.372;2023-07-22T04:52:37;87198.22;;;19.23;76.58
11678;BME280;5895;41.950;24.372;2023-07-22T04:55:05;87196.09;;;19.30;76.94
11678;BME280;5895;41.950;24.372;2023-07-22T04:57:34;87204.50;;;19.42;77.35
11678;BME280;5895;41.950;24.372;2023-07-22T05:00:02;87205.50;;;19.51;76.95
11678;BME280;5895;41.950;24.372;2023-07-22T05:02:30;87200.25;;;19.62;77.05
11678;BME280;5895;41.950;24.372;2023-07-22T05:04:58;87194.94;;;19.77;76.66
11678;BME280;5895;41.950;24.372;2023-07-22T05:07:27;87190.66;;;19.86;76.86
11678;BME280;5895;41.950;24.372;2023-07-22T05:09:54;87198.50;;;20.01;76.58
11678;BME280;5895;41.950;24.372;2023-07-22T05:12:22;87193.69;;;20.14;74.91
11678;BME280;5895;41.950;24.372;2023-07-22T05:14:49;87195.72;;;20.27;74.28
11678;BME280;5895;41.950;24.372;2023-07-22T05:17:17;87199.84;;;20.43;74.78
11678;BME280;5895;41.950;24.372;2023-07-22T05:19:44;87211.94;;;20.54;74.96
11678;BME280;5895;41.950;24.372;2023-07-22T05:22:11;87197.63;;;20.66;75.76
11678;BME280;5895;41.950;24.372;2023-07-22T05:24:40;87204.38;;;20.77;75.32
11678;BME280;5895;41.950;24.372;2023-07-22T05:27:07;87186.97;;;20.76;73.83
11678;BME280;5895;41.950;24.372;2023-07-22T05:29:35;87212.66;;;20.99;74.21
11678;BME280;5895;41.950;24.372;2023-07-22T05:32:02;87214.66;;;21.07;75.46
11678;BME280;5895;41.950;24.372;2023-07-22T05:34:30;87215.13;;;21.14;74.37
11678;BME280;5895;41.950;24.372;2023-07-22T05:36:57;87212.91;;;21.27;73.87
11678;BME280;5895;41.950;24.372;2023-07-22T05:39:24;87206.22;;;21.39;74.20
11678;BME280;5895;41.950;24.372;2023-07-22T05:41:54;87205.59;;;21.48;75.62
11678;BME280;5895;41.950;24.372;2023-07-22T05:44:21;87200.50;;;21.56;73.69
11678;BME280;5895;41.950;24.372;2023-07-22T05:46:49;87199.84;;;21.70;73.37
11678;BME280;5895;41.950;24.372;2023-07-22T05:49:16;87199.72;;;21.80;73.54
11678;BME280;5895;41.950;24.372;2023-07-22T05:51:43;87192.97;;;21.92;75.26
11678;BME280;5895;41.950;24.372;2023-07-22T05:54:11;87192.63;;;21.99;75.58
11678;BME280;5895;41.950;24.372;2023-07-22T05:56:38;87188.81;;;22.10;74.11
11678;BME280;5895;41.950;24.372;2023-07-22T05:59:08;87192.63;;;22.23;73.67
11678;BME280;5895;41.950;24.372;2023-07-22T06:01:35;87196.41;;;22.36;71.87
11678;BME280;5895;41.950;24.372;2023-07-22T06:04:04;87201.75;;;22.50;71.02
11678;BME280;5895;41.950;24.372;2023-07-22T06:06:31;87199.19;;;22.63;70.72
11678;BME280;5895;41.950;24.372;2023-07-22T06:08:58;87199.00;;;22.79;69.74
11678;BME280;5895;41.950;24.372;2023-07-22T06:11:26;87202.78;;;22.91;69.68
11678;BME280;5895;41.950;24.372;2023-07-22T06:13:54;87202.81;;;23.05;69.48
11678;BME280;5895;41.950;24.372;2023-07-22T06:16:23;87209.53;;;23.16;70.37
11678;BME280;5895;41.950;24.372;2023-07-22T06:18:50;87207.00;;;23.25;69.70
11678;BME280;5895;41.950;24.372;2023-07-22T06:21:18;87206.06;;;23.35;69.63
11678;BME280;5895;41.950;24.372;2023-07-22T06:23:45;87208.03;;;23.43;69.36
11678;BME280;5895;41.950;24.372;2023-07-22T06:26:13;87204.69;;;23.51;68.74
11678;BME280;5895;41.950;24.372;2023-07-22T06:28:40;87200.00;;;23.62;69.17
11678;BME280;5895;41.950;24.372;2023-07-22T06:31:08;87212.41;;;23.66;69.53
11678;BME280;5895;41.950;24.372;2023-07-22T06:33:37;87211.75;;;23.74;70.85
11678;BME280;5895;41.950;24.372;2023-07-22T06:36:05;87209.50;;;23.82;69.85
11678;BME280;5895;41.950;24.372;2023-07-22T06:38:33;87211.44;;;23.90;69.14
11678;BME280;5895;41.950;24.372;2023-07-22T06:41:00;87214.22;;;23.98;68.25
11678;BME280;5895;41.950;24.372;2023-07-22T06:43:27;87212.72;;;24.06;69.14
11678;BME280;5895;41.950;24.372;2023-07-22T06:45:55;87213.63;;;24.15;68.35
11678;BME280;5895;41.950;24.372;2023-07-22T06:48:22;87208.91;;;24.26;67.71
11678;BME280;5895;41.950;24.372;2023-07-22T06:50:51;87213.72;;;24.38;67.38
11678;BME280;5895;41.950;24.372;2023-07-22T06:53:19;87214.91;;;24.45;66.86
11678;BME280;5895;41.950;24.372;2023-07-22T06:55:50;87223.44;;;24.56;67.97
11678;BME280;5895;41.950;24.372;2023-07-22T06:58:17;87226.19;;;24.65;67.60
11678;BME280;5895;41.950;24.372;2023-07-22T07:00:45;87219.38;;;24.72;67.02
11678;BME280;5895;41.950;24.372;2023-07-22T07:03:12;87219.47;;;24.81;66.87
11678;BME280;5895;41.950;24.372;2023-07-22T07:05:40;87230.34;;;24.93;66.41
11678;BME280;5895;41.950;24.372;2023-07-22T07:08:09;87220.38;;;24.99;66.80
11678;BME280;5895;41.950;24.372;2023-07-22T07:10:37;87223.72;;;25.04;65.27
11678;BME280;5895;41.950;24.372;2023-07-22T07:13:06;87228.03;;;25.14;64.44
11678;BME280;5895;41.950;24.372;2023-07-22T07:15:35;87226.22;;;25.23;65.35
11678;BME280;5895;41.950;24.372;2023-07-22T07:18:02;87231.59;;;25.32;64.71
11678;BME280;5895;41.950;24.372;2023-07-22T07:20:30;87226.34;;;25.41;63.65
11678;BME280;5895;41.950;24.372;2023-07-22T07:22:57;87219.22;;;25.50;63.53
11678;BME280;5895;41.950;24.372;2023-07-22T07:25:26;87225.22;;;25.64;63.57
11678;BME280;5895;41.950;24.372;2023-07-22T07:27:53;87220.66;;;25.78;62.22
11678;BME280;5895;41.950;24.372;2023-07-22T07:30:21;87222.75;;;25.90;61.63
11678;BME280;5895;41.950;24.372;2023-07-22T07:32:48;87227.03;;;26.00;62.35
11678;BME280;5895;41.950;24.372;2023-07-22T07:35:16;87228.47;;;26.06;62.18
11678;BME280;5895;41.950;24.372;2023-07-22T07:37:43;87238.00;;;26.07;61.78
11678;BME280;5895;41.950;24.372;2023-07-22T07:40:12;87231.47;;;26.13;61.17
11678;BME280;5895;41.950;24.372;2023-07-22T07:42:41;87237.59;;;26.22;63.43
11678;BME280;5895;41.950;24.372;2023-07-22T07:45:09;87240.72;;;26.24;61.68
11678;BME280;5895;41.950;24.372;2023-07-22T07:47:37;87226.53;;;26.37;60.86
11678;BME280;5895;41.950;24.372;2023-07-22T07:50:05;87226.59;;;26.46;60.99
11678;BME280;5895;41.950;24.372;2023-07-22T07:52:33;87243.53;;;26.59;59.94
11678;BME280;5895;41.950;24.372;2023-07-22T07:55:00;87233.38;;;26.70;59.86
11678;BME280;5895;41.950;24.372;2023-07-22T07:57:28;87229.00;;;26.82;57.94
11678;BME280;5895;41.950;24.372;2023-07-22T07:59:57;87233.28;;;27.01;56.70
11678;BME280;5895;41.950;24.372;2023-07-22T08:02:24;87228.63;;;27.15;55.91
11678;BME280;5895;41.950;24.372;2023-07-22T08:04:52;87223.94;;;27.29;55.41
11678;BME280;5895;41.950;24.372;2023-07-22T08:07:19;87227.38;;;27.38;56.01
11678;BME280;5895;41.950;24.372;2023-07-22T08:09:47;87232.38;;;27.49;55.90
11678;BME280;5895;41.950;24.372;2023-07-22T08:12:15;87211.03;;;27.66;55.96
11678;BME280;5895;41.950;24.372;2023-07-22T08:14:43;87226.41;;;27.86;55.35
11678;BME280;5895;41.950;24.372;2023-07-22T08:17:12;87225.75;;;28.07;54.22
11678;BME280;5895;41.950;24.372;2023-07-22T08:19:39;87232.44;;;28.21;54.46
11678;BME280;5895;41.950;24.372;2023-07-22T08:22:07;87230.53;;;28.22;55.74
11678;BME280;5895;41.950;24.372;2023-07-22T08:24:34;87223.31;;;28.23;56.60
11678;BME280;5895;41.950;24.372;2023-07-22T08:27:02;87230.84;;;28.29;56.65
11678;BME280;5895;41.950;24.372;2023-07-22T08:29:29;87227.06;;;28.39;57.20
11678;BME280;5895;41.950;24.372;2023-07-22T08:31:57;87229.38;;;28.49;56.97
11678;BME280;5895;41.950;24.372;2023-07-22T08:34:26;87229.44;;;28.70;55.88
11678;BME280;5895;41.950;24.372;2023-07-22T08:36:53;87224.19;;;28.82;56.12
11678;BME280;5895;41.950;24.372;2023-07-22T08:39:21;87221.00;;;28.97;54.83
11678;BME280;5895;41.950;24.372;2023-07-22T08:41:49;87234.63;;;29.05;53.13
11678;BME280;5895;41.950;24.372;2023-07-22T08:44:19;87236.00;;;29.11;53.69
11678;BME280;5895;41.950;24.372;2023-07-22T08:46:50;87244.66;;;29.08;54.27
11678;BME280;5895;41.950;24.372;2023-07-22T08:49:21;87236.91;;;29.15;54.70
11678;BME280;5895;41.950;24.372;2023-07-22T08:51:50;87240.03;;;29.17;49.89
11678;BME280;5895;41.950;24.372;2023-07-22T08:54:18;87225.84;;;29.25;50.31
11678;BME280;5895;41.950;24.372;2023-07-22T08:56:47;87230.00;;;29.35;49.99
11678;BME280;5895;41.950;24.372;2023-07-22T08:59:17;87228.84;;;29.44;48.84
11678;BME280;5895;41.950;24.372;2023-07-22T09:01:45;87236.75;;;29.62;49.17
11678;BME280;5895;41.950;24.372;2023-07-22T09:04:13;87230.56;;;29.70;48.39
11678;BME280;5895;41.950;24.372;2023-07-22T09:06:41;87249.31;;;29.82;47.68
11678;BME280;5895;41.950;24.372;2023-07-22T09:09:10;87240.38;;;29.78;44.54
11678;BME280;5895;41.950;24.372;2023-07-22T09:11:39;87236.00;;;29.94;48.70
11678;BME280;5895;41.950;24.372;2023-07-22T09:14:06;87235.97;;;30.15;47.76
11678;BME280;5895;41.950;24.372;2023-07-22T09:16:35;87234.09;;;30.28;47.25
11678;BME280;5895;41.950;24.372;2023-07-22T09:19:04;87224.97;;;30.41;46.93
11678;BME280;5895;41.950;24.372;2023-07-22T09:21:32;87232.03;;;30.58;47.01
11678;BME280;5895;41.950;24.372;2023-07-22T09:24:01;87230.63;;;30.73;47.42
11678;BME280;5895;41.950;24.372;2023-07-22T09:26:32;87218.56;;;30.91;45.44
11678;BME280;5895;41.950;24.372;2023-07-22T09:29:00;87224.38;;;31.05;45.82
11678;BME280;5895;41.950;24.372;2023-07-22T09:31:27;87213.66;;;31.05;45.85
11678;BME280;5895;41.950;24.372;2023-07-22T09:33:55;87225.28;;;31.10;45.60
11678;BME280;5895;41.950;24.372;2023-07-22T09:36:49;87218.13;;;31.26;40.65
11678;BME280;5895;41.950;24.372;2023-07-22T09:39:16;87211.41;;;31.32;45.00
11678;BME280;5895;41.950;24.372;2023-07-22T09:41:45;87210.53;;;31.28;44.66
11678;BME280;5895;41.950;24.372;2023-07-22T09:44:13;87225.16;;;31.30;45.01
11678;BME280;5895;41.950;24.372;2023-07-22T09:46:40;87216.09;;;31.35;44.64
11678;BME280;5895;41.950;24.372;2023-07-22T09:49:09;87216.19;;;31.51;44.24
11678;BME280;5895;41.950;24.372;2023-07-22T09:51:39;87205.88;;;31.53;41.89
11678;BME280;5895;41.950;24.372;2023-07-22T09:54:07;87207.53;;;31.57;44.07
11678;BME280;5895;41.950;24.372;2023-07-22T09:56:45;87206.84;;;31.73;42.03
11678;BME280;5895;41.950;24.372;2023-07-22T09:59:12;87206.56;;;31.90;44.75
11678;BME280;5895;41.950;24.372;2023-07-22T10:01:40;87209.59;;;32.17;45.08
11678;BME280;5895;41.950;24.372;2023-07-22T10:04:10;87207.94;;;32.40;45.05
11678;BME280;5895;41.950;24.372;2023-07-22T10:06:38;87203.34;;;32.56;45.82
11678;BME280;5895;41.950;24.372;2023-07-22T10:09:08;87207.66;;;32.77;42.17
11678;BME280;5895;41.950;24.372;2023-07-22T10:11:37;87197.88;;;32.84;45.21
11678;BME280;5895;41.950;24.372;2023-07-22T10:14:07;87194.34;;;32.96;46.03
11678;BME280;5895;41.950;24.372;2023-07-22T10:16:36;87202.47;;;33.15;46.34
11678;BME280;5895;41.950;24.372;2023-07-22T10:19:04;87209.59;;;33.24;45.91
11678;BME280;5895;41.950;24.372;2023-07-22T10:21:35;87203.25;;;33.16;42.74
11678;BME280;5895;41.950;24.372;2023-07-22T10:24:14;87199.44;;;33.17;44.24
11678;BME280;5895;41.950;24.372;2023-07-22T10:26:42;87200.22;;;33.17;43.51
11678;BME280;5895;41.950;24.372;2023-07-22T10:29:13;87203.50;;;33.27;41.89
11678;BME280;5895;41.950;24.372;2023-07-22T10:31:41;87192.38;;;33.44;45.56
11678;BME280;5895;41.950;24.372;2023-07-22T10:34:08;87208.84;;;33.58;45.47
11678;BME280;5895;41.950;24.372;2023-07-22T10:36:36;87205.38;;;33.77;46.37
11678;BME280;5895;41.950;24.372;2023-07-22T10:39:03;87200.44;;;33.79;45.58
11678;BME280;5895;41.950;24.372;2023-07-22T10:41:32;87207.59;;;33.91;44.04
11678;BME280;5895;41.950;24.372;2023-07-22T10:44:00;87199.81;;;34.05;44.96
11678;BME280;5895;41.950;24.372;2023-07-22T10:46:36;87200.59;;;34.25;43.24
11678;BME280;5895;41.950;24.372;2023-07-22T10:49:13;87191.16;;;34.35;43.13
11678;BME280;5895;41.950;24.372;2023-07-22T10:51:45;87200.34;;;34.34;44.13
11678;BME280;5895;41.950;24.372;2023-07-22T10:54:15;87216.81;;;34.48;44.85
11678;BME280;5895;41.950;24.372;2023-07-22T10:56:43;87191.53;;;34.56;44.80
11678;BME280;5895;41.950;24.372;2023-07-22T10:59:11;87194.25;;;34.56;44.43
11678;BME280;5895;41.950;24.372;2023-07-22T11:01:45;87208.03;;;34.32;44.53
11678;BME280;5895;41.950;24.372;2023-07-22T11:04:21;87192.44;;;34.21;44.37
11678;BME280;5895;41.950;24.372;2023-07-22T11:06:57;87208.16;;;34.00;45.46
11678;BME280;5895;41.950;24.372;2023-07-22T11:09:35;87193.16;;;34.18;39.54
11678;BME280;5895;41.950;24.372;2023-07-22T11:12:03;87204.63;;;34.35;45.57
11678;BME280;5895;41.950;24.372;2023-07-22T11:14:32;87206.81;;;34.49;43.33
11678;BME280;5895;41.950;24.372;2023-07-22T11:17:03;87209.41;;;34.64;42.75
11678;BME280;5895;41.950;24.372;2023-07-22T11:19:31;87196.59;;;34.81;43.11
11678;BME280;5895;41.950;24.372;2023-07-22T11:22:00;87196.00;;;34.91;43.96
11678;BME280;5895;41.950;24.372;2023-07-22T11:24:27;87193.19;;;35.07;42.54
11678;BME280;5895;41.950;24.372;2023-07-22T11:26:58;87188.38;;;35.19;40.40
11678;BME280;5895;41.950;24.372;2023-07-22T11:29:26;87184.28;;;35.29;42.47
11678;BME280;5895;41.950;24.372;2023-07-22T11:31:53;87186.63;;;35.31;42.01
11678;BME280;5895;41.950;24.372;2023-07-22T11:34:23;87181.28;;;35.34;40.44
11678;BME280;5895;41.950;24.372;2023-07-22T11:36:52;87182.16;;;35.42;41.58
11678;BME280;5895;41.950;24.372;2023-07-22T11:39:21;87187.47;;;35.61;41.41
11678;BME280;5895;41.950;24.372;2023-07-22T11:41:49;87176.22;;;35.56;41.84
11678;BME280;5895;41.950;24.372;2023-07-22T11:44:18;87187.00;;;35.06;42.05
11678;BME280;5895;41.950;24.372;2023-07-22T11:46:48;87190.13;;;34.85;43.33
11678;BME280;5895;41.950;24.372;2023-07-22T11:49:28;87190.91;;;35.09;38.89
11678;BME280;5895;41.950;24.372;2023-07-22T11:51:57;87179.66;;;35.30;42.06
11678;BME280;5895;41.950;24.372;2023-07-22T11:54:26;87185.41;;;35.51;42.14
11678;BME280;5895;41.950;24.372;2023-07-22T11:56:54;87178.53;;;35.57;41.41
11678;BME280;5895;41.950;24.372;2023-07-22T11:59:36;87185.81;;;35.53;36.51
11678;BME280;5895;41.950;24.372;2023-07-22T12:02:05;87178.84;;;35.25;42.29
11678;BME280;5895;41.950;24.372;2023-07-22T12:04:34;87188.78;;;35.21;41.34
11678;BME280;5895;41.950;24.372;2023-07-22T12:07:02;87188.63;;;35.11;41.88
11678;BME280;5895;41.950;24.372;2023-07-22T12:09:31;87185.34;;;34.98;41.95
11678;BME280;5895;41.950;24.372;2023-07-22T12:12:00;87189.72;;;35.06;43.01
11678;BME280;5895;41.950;24.372;2023-07-22T12:14:34;87193.59;;;34.86;39.50
11678;BME280;5895;41.950;24.372;2023-07-22T12:17:02;87192.69;;;34.55;43.60
11678;BME280;5895;41.950;24.372;2023-07-22T12:19:29;87185.56;;;34.43;44.37
11678;BME280;5895;41.950;24.372;2023-07-22T12:21:58;87201.34;;;34.45;45.37
11678;BME280;5895;41.950;24.372;2023-07-22T12:24:27;87186.66;;;34.42;44.98
11678;BME280;5895;41.950;24.372;2023-07-22T12:26:55;87189.38;;;34.23;44.81
11678;BME280;5895;41.950;24.372;2023-07-22T12:29:22;87185.59;;;33.89;45.04
11678;BME280;5895;41.950;24.372;2023-07-22T12:31:49;87189.28;;;33.61;46.17
11678;BME280;5895;41.950;24.372;2023-07-22T12:34:17;87190.50;;;33.29;46.67
11678;BME280;5895;41.950;24.372;2023-07-22T12:36:44;87198.34;;;33.02;46.93
11678;BME280;5895;41.950;24.372;2023-07-22T12:39:13;87204.56;;;32.75;47.43
11678;BME280;5895;41.950;24.372;2023-07-22T12:41:41;87207.06;;;32.52;48.38
11678;BME280;5895;41.950;24.372;2023-07-22T12:44:08;87202.66;;;32.59;48.15
11678;BME280;5895;41.950;24.372;2023-07-22T12:46:35;87195.75;;;32.90;48.13
11678;BME280;5895;41.950;24.372;2023-07-22T12:49:03;87194.84;;;33.17;47.62
11678;BME280;5895;41.950;24.372;2023-07-22T12:51:31;87179.28;;;33.42;47.24
11678;BME280;5895;41.950;24.372;2023-07-22T12:53:59;87185.38;;;33.59;45.01
11678;BME280;5895;41.950;24.372;2023-07-22T12:56:28;87176.81;;;33.73;44.50
11678;BME280;5895;41.950;24.372;2023-07-22T12:58:55;87181.63;;;33.83;44.51
11678;BME280;5895;41.950;24.372;2023-07-22T13:01:23;87189.28;;;33.97;44.28
11678;BME280;5895;41.950;24.372;2023-07-22T13:03:51;87182.66;;;34.13;42.98
11678;BME280;5895;41.950;24.372;2023-07-22T13:06:19;87183.66;;;34.25;43.03